Etusivu
METAR-TAF:

METAR-TAF

Lentoasemat :

Borlänge, Ruotsi

Leveyspiiri: 60-26N, Pituuspiiri: 015-31E, korkeus merenpinnasta: 145 m

Tämänhetkinen sää

Tämä raportti tehtiin 39 minuuttia sitten, kello 00.20 UTC
Tuuli 4 kn etelästä/lounaasta
Lämpötila 15°C
Kosteus 82%
Ilmanpaine 1006 hPa
Näkyvyys 10 km tai enemmän

METAR: ESSD 220020Z AUTO 21004KT 9999 NCD 15/12 Q1006

Aika: 02:59 (00:59 UTC)


TAF: puuttuu

Säähavainnot ja -ennusteet yli 4000 lentoasemalta (METAR- ja TAF-raportit).

Käytössä olevat sääasemat on merkitty karttaan keltaisilla ja punaisilla pisteillä.

Aseta hiiri pisteen päälle nähdäksesi sääaseman nimen.

Klikkaa sitten nähdäksesi säähavainnot ja -ennusteet.

Kartan vaihtaminen: klikkaa mustalla rastilla varustettuja vihreitä pisteitä, niin voit zoomata sisään; viivalla varustettua vihreää pistettä, niin voit zoomata ulos tai vihreitä nuolia, niin pääset viereisille kartoille.


METAR-TAF: